sensor_id;sensor_type;location;lat;lon;timestamp;P1;durP1;ratioP1;P2;durP2;ratioP2
3549;SDS011;45572;48.804;8.330;2023-12-22T00:00:21;5.65;;;1.40;;
3549;SDS011;45572;48.804;8.330;2023-12-22T00:02:49;1.40;;;0.93;;
3549;SDS011;45572;48.804;8.330;2023-12-22T00:05:17;4.38;;;1.08;;
3549;SDS011;45572;48.804;8.330;2023-12-22T00:07:48;5.90;;;0.93;;
3549;SDS011;45572;48.804;8.330;2023-12-22T00:10:17;5.30;;;0.90;;
3549;SDS011;45572;48.804;8.330;2023-12-22T00:12:46;3.30;;;0.88;;
3549;SDS011;45572;48.804;8.330;2023-12-22T00:15:15;2.92;;;1.00;;
3549;SDS011;45572;48.804;8.330;2023-12-22T00:17:43;1.88;;;0.70;;
3549;SDS011;45572;48.804;8.330;2023-12-22T00:20:11;4.57;;;1.17;;
3549;SDS011;45572;48.804;8.330;2023-12-22T00:22:40;2.60;;;0.95;;
3549;SDS011;45572;48.804;8.330;2023-12-22T00:25:09;1.92;;;1.00;;
3549;SDS011;45572;48.804;8.330;2023-12-22T00:27:37;1.80;;;0.90;;
3549;SDS011;45572;48.804;8.330;2023-12-22T00:30:07;1.95;;;1.15;;
3549;SDS011;45572;48.804;8.330;2023-12-22T00:32:35;2.92;;;1.23;;
3549;SDS011;45572;48.804;8.330;2023-12-22T00:35:04;4.60;;;1.02;;
3549;SDS011;45572;48.804;8.330;2023-12-22T00:37:32;4.10;;;1.00;;
3549;SDS011;45572;48.804;8.330;2023-12-22T00:40:00;3.95;;;1.13;;
3549;SDS011;45572;48.804;8.330;2023-12-22T00:42:33;7.47;;;1.10;;
3549;SDS011;45572;48.804;8.330;2023-12-22T00:45:04;4.07;;;1.00;;
3549;SDS011;45572;48.804;8.330;2023-12-22T00:47:34;2.67;;;1.20;;
3549;SDS011;45572;48.804;8.330;2023-12-22T00:50:02;1.50;;;0.60;;
3549;SDS011;45572;48.804;8.330;2023-12-22T00:52:32;2.83;;;0.70;;
3549;SDS011;45572;48.804;8.330;2023-12-22T00:55:00;0.82;;;0.50;;
3549;SDS011;45572;48.804;8.330;2023-12-22T00:57:31;3.13;;;0.50;;
3549;SDS011;45572;48.804;8.330;2023-12-22T00:59:59;1.02;;;0.60;;
3549;SDS011;45572;48.804;8.330;2023-12-22T01:02:27;2.08;;;1.13;;
3549;SDS011;45572;48.804;8.330;2023-12-22T01:04:57;1.00;;;0.50;;
3549;SDS011;45572;48.804;8.330;2023-12-22T01:07:25;1.35;;;0.80;;
3549;SDS011;45572;48.804;8.330;2023-12-22T01:09:53;1.13;;;0.60;;
3549;SDS011;45572;48.804;8.330;2023-12-22T01:12:24;1.45;;;0.60;;
3549;SDS011;45572;48.804;8.330;2023-12-22T01:14:52;0.70;;;0.50;;
3549;SDS011;45572;48.804;8.330;2023-12-22T01:17:20;2.05;;;0.50;;
3549;SDS011;45572;48.804;8.330;2023-12-22T01:19:48;1.63;;;0.57;;
3549;SDS011;45572;48.804;8.330;2023-12-22T01:22:19;2.47;;;0.70;;
3549;SDS011;45572;48.804;8.330;2023-12-22T01:24:49;1.02;;;0.60;;
3549;SDS011;45572;48.804;8.330;2023-12-22T01:27:17;2.33;;;0.50;;
3549;SDS011;45572;48.804;8.330;2023-12-22T01:29:46;2.40;;;1.05;;
3549;SDS011;45572;48.804;8.330;2023-12-22T01:32:14;2.47;;;0.60;;
3549;SDS011;45572;48.804;8.330;2023-12-22T01:34:42;2.00;;;0.73;;
3549;SDS011;45572;48.804;8.330;2023-12-22T01:37:10;3.65;;;0.85;;
3549;SDS011;45572;48.804;8.330;2023-12-22T01:39:39;3.85;;;0.60;;
3549;SDS011;45572;48.804;8.330;2023-12-22T01:42:07;1.10;;;0.52;;
3549;SDS011;45572;48.804;8.330;2023-12-22T01:44:35;1.50;;;0.60;;
3549;SDS011;45572;48.804;8.330;2023-12-22T01:47:04;0.70;;;0.50;;
3549;SDS011;45572;48.804;8.330;2023-12-22T01:49:32;2.92;;;1.02;;
3549;SDS011;45572;48.804;8.330;2023-12-22T01:52:00;3.90;;;0.75;;
3549;SDS011;45572;48.804;8.330;2023-12-22T01:54:28;3.53;;;1.50;;
3549;SDS011;45572;48.804;8.330;2023-12-22T01:56:58;3.63;;;0.90;;
3549;SDS011;45572;48.804;8.330;2023-12-22T01:59:26;2.30;;;0.95;;
3549;SDS011;45572;48.804;8.330;2023-12-22T02:01:57;2.38;;;0.90;;
3549;SDS011;45572;48.804;8.330;2023-12-22T02:04:25;2.00;;;0.95;;
3549;SDS011;45572;48.804;8.330;2023-12-22T02:06:54;9.35;;;2.55;;
3549;SDS011;45572;48.804;8.330;2023-12-22T02:09:24;2.72;;;0.80;;
3549;SDS011;45572;48.804;8.330;2023-12-22T02:11:52;7.45;;;1.10;;
3549;SDS011;45572;48.804;8.330;2023-12-22T02:14:21;2.35;;;1.20;;
3549;SDS011;45572;48.804;8.330;2023-12-22T02:16:50;3.92;;;0.80;;
3549;SDS011;45572;48.804;8.330;2023-12-22T02:19:25;3.30;;;0.90;;
3549;SDS011;45572;48.804;8.330;2023-12-22T02:22:09;4.85;;;1.08;;
3549;SDS011;45572;48.804;8.330;2023-12-22T02:24:39;3.35;;;0.93;;
3549;SDS011;45572;48.804;8.330;2023-12-22T02:27:10;4.35;;;1.00;;
3549;SDS011;45572;48.804;8.330;2023-12-22T02:29:49;1.70;;;0.70;;
3549;SDS011;45572;48.804;8.330;2023-12-22T02:32:22;6.28;;;1.30;;
3549;SDS011;45572;48.804;8.330;2023-12-22T02:34:55;5.53;;;0.90;;
3549;SDS011;45572;48.804;8.330;2023-12-22T02:37:26;7.35;;;1.67;;
3549;SDS011;45572;48.804;8.330;2023-12-22T02:39:57;4.43;;;1.15;;
3549;SDS011;45572;48.804;8.330;2023-12-22T02:42:27;1.15;;;0.60;;
3549;SDS011;45572;48.804;8.330;2023-12-22T02:44:57;2.65;;;0.60;;
3549;SDS011;45572;48.804;8.330;2023-12-22T02:47:25;3.83;;;1.23;;
3549;SDS011;45572;48.804;8.330;2023-12-22T02:49:55;2.00;;;1.33;;
3549;SDS011;45572;48.804;8.330;2023-12-22T02:52:23;2.50;;;0.80;;
3549;SDS011;45572;48.804;8.330;2023-12-22T02:54:51;2.97;;;1.00;;
3549;SDS011;45572;48.804;8.330;2023-12-22T02:57:21;1.30;;;0.68;;
3549;SDS011;45572;48.804;8.330;2023-12-22T02:59:49;6.40;;;0.73;;
3549;SDS011;45572;48.804;8.330;2023-12-22T03:02:17;2.33;;;1.10;;
3549;SDS011;45572;48.804;8.330;2023-12-22T03:04:45;1.85;;;0.50;;
3549;SDS011;45572;48.804;8.330;2023-12-22T03:07:13;1.45;;;0.77;;
3549;SDS011;45572;48.804;8.330;2023-12-22T03:09:42;2.53;;;1.33;;
3549;SDS011;45572;48.804;8.330;2023-12-22T03:12:10;2.60;;;0.85;;
3549;SDS011;45572;48.804;8.330;2023-12-22T03:14:40;3.20;;;1.08;;
3549;SDS011;45572;48.804;8.330;2023-12-22T03:17:08;1.50;;;0.90;;
3549;SDS011;45572;48.804;8.330;2023-12-22T03:19:37;2.28;;;0.60;;
3549;SDS011;45572;48.804;8.330;2023-12-22T03:22:06;1.10;;;0.52;;
3549;SDS011;45572;48.804;8.330;2023-12-22T03:24:34;2.30;;;0.73;;
3549;SDS011;45572;48.804;8.330;2023-12-22T03:27:03;0.90;;;0.60;;
3549;SDS011;45572;48.804;8.330;2023-12-22T03:29:31;6.50;;;0.93;;
3549;SDS011;45572;48.804;8.330;2023-12-22T03:32:01;7.95;;;1.05;;
3549;SDS011;45572;48.804;8.330;2023-12-22T03:34:29;3.35;;;1.40;;
3549;SDS011;45572;48.804;8.330;2023-12-22T03:36:56;5.95;;;1.05;;
3549;SDS011;45572;48.804;8.330;2023-12-22T03:39:25;4.35;;;1.25;;
3549;SDS011;45572;48.804;8.330;2023-12-22T03:41:53;3.70;;;1.10;;
3549;SDS011;45572;48.804;8.330;2023-12-22T03:44:21;1.88;;;0.90;;
3549;SDS011;45572;48.804;8.330;2023-12-22T03:46:51;7.38;;;1.95;;
3549;SDS011;45572;48.804;8.330;2023-12-22T03:49:21;6.53;;;1.17;;
3549;SDS011;45572;48.804;8.330;2023-12-22T03:51:49;6.60;;;1.08;;
3549;SDS011;45572;48.804;8.330;2023-12-22T03:54:17;11.52;;;1.33;;
3549;SDS011;45572;48.804;8.330;2023-12-22T03:56:45;5.40;;;1.73;;
3549;SDS011;45572;48.804;8.330;2023-12-22T03:59:13;6.30;;;1.80;;
3549;SDS011;45572;48.804;8.330;2023-12-22T04:01:49;7.30;;;1.58;;
3549;SDS011;45572;48.804;8.330;2023-12-22T04:04:19;4.15;;;1.30;;
3549;SDS011;45572;48.804;8.330;2023-12-22T04:06:49;10.15;;;2.75;;
3549;SDS011;45572;48.804;8.330;2023-12-22T04:09:17;3.70;;;1.40;;
3549;SDS011;45572;48.804;8.330;2023-12-22T04:11:45;10.95;;;0.95;;
3549;SDS011;45572;48.804;8.330;2023-12-22T04:14:13;5.82;;;1.63;;
3549;SDS011;45572;48.804;8.330;2023-12-22T04:16:41;3.25;;;1.25;;
3549;SDS011;45572;48.804;8.330;2023-12-22T04:19:09;8.90;;;1.52;;
3549;SDS011;45572;48.804;8.330;2023-12-22T04:21:39;10.43;;;2.42;;
3549;SDS011;45572;48.804;8.330;2023-12-22T04:24:07;13.98;;;1.85;;
3549;SDS011;45572;48.804;8.330;2023-12-22T04:26:38;11.55;;;2.72;;
3549;SDS011;45572;48.804;8.330;2023-12-22T04:29:06;9.13;;;1.42;;
3549;SDS011;45572;48.804;8.330;2023-12-22T04:31:34;8.73;;;1.48;;
3549;SDS011;45572;48.804;8.330;2023-12-22T04:34:02;6.18;;;1.63;;
3549;SDS011;45572;48.804;8.330;2023-12-22T04:36:30;7.47;;;1.55;;
3549;SDS011;45572;48.804;8.330;2023-12-22T04:38:59;9.85;;;2.03;;
3549;SDS011;45572;48.804;8.330;2023-12-22T04:41:27;7.18;;;1.60;;
3549;SDS011;45572;48.804;8.330;2023-12-22T04:43:55;5.00;;;1.50;;
3549;SDS011;45572;48.804;8.330;2023-12-22T04:46:23;11.18;;;1.77;;
3549;SDS011;45572;48.804;8.330;2023-12-22T04:48:51;5.05;;;1.25;;
3549;SDS011;45572;48.804;8.330;2023-12-22T04:51:20;5.00;;;1.52;;
3549;SDS011;45572;48.804;8.330;2023-12-22T04:53:47;9.80;;;2.55;;
3549;SDS011;45572;48.804;8.330;2023-12-22T04:56:17;8.95;;;1.48;;
3549;SDS011;45572;48.804;8.330;2023-12-22T04:58:45;11.20;;;1.80;;
3549;SDS011;45572;48.804;8.330;2023-12-22T05:01:13;10.25;;;1.92;;
3549;SDS011;45572;48.804;8.330;2023-12-22T05:03:41;11.70;;;1.95;;
3549;SDS011;45572;48.804;8.330;2023-12-22T05:06:09;4.45;;;1.80;;
3549;SDS011;45572;48.804;8.330;2023-12-22T05:08:37;10.63;;;2.45;;
3549;SDS011;45572;48.804;8.330;2023-12-22T05:11:05;6.57;;;2.45;;
3549;SDS011;45572;48.804;8.330;2023-12-22T05:13:35;7.30;;;2.03;;
3549;SDS011;45572;48.804;8.330;2023-12-22T05:16:03;7.75;;;2.17;;
3549;SDS011;45572;48.804;8.330;2023-12-22T05:18:32;7.07;;;2.75;;
3549;SDS011;45572;48.804;8.330;2023-12-22T05:21:00;12.73;;;2.97;;
3549;SDS011;45572;48.804;8.330;2023-12-22T05:23:28;10.52;;;2.38;;
3549;SDS011;45572;48.804;8.330;2023-12-22T05:25:56;9.32;;;1.92;;
3549;SDS011;45572;48.804;8.330;2023-12-22T05:28:24;6.95;;;1.80;;
3549;SDS011;45572;48.804;8.330;2023-12-22T05:30:54;11.07;;;1.73;;
3549;SDS011;45572;48.804;8.330;2023-12-22T05:33:21;7.60;;;2.08;;
3549;SDS011;45572;48.804;8.330;2023-12-22T05:35:49;9.75;;;2.53;;
3549;SDS011;45572;48.804;8.330;2023-12-22T05:38:19;12.20;;;2.22;;
3549;SDS011;45572;48.804;8.330;2023-12-22T05:40:47;8.52;;;1.67;;
3549;SDS011;45572;48.804;8.330;2023-12-22T05:43:16;5.97;;;1.35;;
3549;SDS011;45572;48.804;8.330;2023-12-22T05:45:44;18.65;;;2.45;;
3549;SDS011;45572;48.804;8.330;2023-12-22T05:48:13;15.02;;;2.55;;
3549;SDS011;45572;48.804;8.330;2023-12-22T05:50:42;9.82;;;1.35;;
3549;SDS011;45572;48.804;8.330;2023-12-22T05:53:12;9.38;;;1.60;;
3549;SDS011;45572;48.804;8.330;2023-12-22T05:55:41;8.52;;;1.50;;
3549;SDS011;45572;48.804;8.330;2023-12-22T05:58:09;6.28;;;1.20;;
3549;SDS011;45572;48.804;8.330;2023-12-22T06:00:37;5.72;;;1.55;;
3549;SDS011;45572;48.804;8.330;2023-12-22T06:03:06;4.13;;;1.10;;
3549;SDS011;45572;48.804;8.330;2023-12-22T06:05:35;5.25;;;1.38;;
3549;SDS011;45572;48.804;8.330;2023-12-22T06:08:03;19.40;;;3.28;;
3549;SDS011;45572;48.804;8.330;2023-12-22T06:10:32;6.05;;;1.50;;
3549;SDS011;45572;48.804;8.330;2023-12-22T06:13:00;7.03;;;1.45;;
3549;SDS011;45572;48.804;8.330;2023-12-22T06:15:29;5.25;;;1.42;;
3549;SDS011;45572;48.804;8.330;2023-12-22T06:17:58;11.73;;;1.75;;
3549;SDS011;45572;48.804;8.330;2023-12-22T06:20:26;9.15;;;2.00;;
3549;SDS011;45572;48.804;8.330;2023-12-22T06:22:55;9.18;;;1.80;;
3549;SDS011;45572;48.804;8.330;2023-12-22T06:25:23;5.97;;;2.13;;
3549;SDS011;45572;48.804;8.330;2023-12-22T06:27:51;6.88;;;2.17;;
3549;SDS011;45572;48.804;8.330;2023-12-22T06:30:19;8.00;;;2.03;;
3549;SDS011;45572;48.804;8.330;2023-12-22T06:32:48;7.32;;;1.92;;
3549;SDS011;45572;48.804;8.330;2023-12-22T06:35:16;17.42;;;2.17;;
3549;SDS011;45572;48.804;8.330;2023-12-22T06:37:44;8.65;;;3.38;;
3549;SDS011;45572;48.804;8.330;2023-12-22T06:40:14;5.43;;;1.52;;
3549;SDS011;45572;48.804;8.330;2023-12-22T06:42:43;12.77;;;1.85;;
3549;SDS011;45572;48.804;8.330;2023-12-22T06:45:11;10.45;;;2.67;;
3549;SDS011;45572;48.804;8.330;2023-12-22T06:47:39;13.05;;;2.83;;
3549;SDS011;45572;48.804;8.330;2023-12-22T06:50:07;11.93;;;4.43;;
3549;SDS011;45572;48.804;8.330;2023-12-22T06:52:36;15.43;;;2.72;;
3549;SDS011;45572;48.804;8.330;2023-12-22T06:55:04;7.35;;;3.05;;
3549;SDS011;45572;48.804;8.330;2023-12-22T06:57:35;8.95;;;2.25;;
3549;SDS011;45572;48.804;8.330;2023-12-22T07:00:03;12.95;;;2.45;;
3549;SDS011;45572;48.804;8.330;2023-12-22T07:02:33;10.25;;;2.15;;
3549;SDS011;45572;48.804;8.330;2023-12-22T07:08:00;9.10;;;2.22;;
3549;SDS011;45572;48.804;8.330;2023-12-22T07:10:28;17.00;;;2.80;;
3549;SDS011;45572;48.804;8.330;2023-12-22T07:12:58;8.85;;;2.25;;
3549;SDS011;45572;48.804;8.330;2023-12-22T07:15:26;13.73;;;2.47;;
3549;SDS011;45572;48.804;8.330;2023-12-22T07:17:55;8.00;;;2.20;;
3549;SDS011;45572;48.804;8.330;2023-12-22T07:20:23;24.20;;;2.60;;
3549;SDS011;45572;48.804;8.330;2023-12-22T07:22:51;6.32;;;2.75;;
3549;SDS011;45572;48.804;8.330;2023-12-22T07:25:22;6.50;;;2.03;;
3549;SDS011;45572;48.804;8.330;2023-12-22T07:27:50;22.73;;;3.33;;
3549;SDS011;45572;48.804;8.330;2023-12-22T07:30:20;10.75;;;2.08;;
3549;SDS011;45572;48.804;8.330;2023-12-22T07:32:48;11.05;;;1.75;;
3549;SDS011;45572;48.804;8.330;2023-12-22T07:35:19;9.60;;;2.33;;
3549;SDS011;45572;48.804;8.330;2023-12-22T07:37:47;14.95;;;3.47;;
3549;SDS011;45572;48.804;8.330;2023-12-22T07:40:16;12.20;;;2.90;;
3549;SDS011;45572;48.804;8.330;2023-12-22T07:42:44;11.00;;;2.80;;
3549;SDS011;45572;48.804;8.330;2023-12-22T07:45:12;9.07;;;1.90;;
3549;SDS011;45572;48.804;8.330;2023-12-22T07:52:14;7.93;;;2.05;;
3549;SDS011;45572;48.804;8.330;2023-12-22T07:54:44;11.73;;;2.10;;
3549;SDS011;45572;48.804;8.330;2023-12-22T07:57:14;8.52;;;2.85;;
3549;SDS011;45572;48.804;8.330;2023-12-22T07:59:42;10.15;;;2.10;;
3549;SDS011;45572;48.804;8.330;2023-12-22T08:02:10;5.80;;;2.58;;
3549;SDS011;45572;48.804;8.330;2023-12-22T08:04:38;9.75;;;2.35;;
3549;SDS011;45572;48.804;8.330;2023-12-22T08:07:07;5.45;;;2.13;;
3549;SDS011;45572;48.804;8.330;2023-12-22T08:09:37;13.70;;;2.53;;
3549;SDS011;45572;48.804;8.330;2023-12-22T08:12:05;17.63;;;2.72;;
3549;SDS011;45572;48.804;8.330;2023-12-22T08:14:34;7.72;;;2.40;;
3549;SDS011;45572;48.804;8.330;2023-12-22T08:17:02;8.27;;;1.73;;
3549;SDS011;45572;48.804;8.330;2023-12-22T08:19:30;5.13;;;2.30;;
3549;SDS011;45572;48.804;8.330;2023-12-22T08:22:01;8.00;;;1.85;;
3549;SDS011;45572;48.804;8.330;2023-12-22T08:24:33;13.68;;;3.15;;
3549;SDS011;45572;48.804;8.330;2023-12-22T08:27:03;9.82;;;2.10;;
3549;SDS011;45572;48.804;8.330;2023-12-22T08:29:31;10.45;;;2.65;;
3549;SDS011;45572;48.804;8.330;2023-12-22T08:32:03;7.32;;;2.38;;
3549;SDS011;45572;48.804;8.330;2023-12-22T08:34:31;6.57;;;2.03;;
3549;SDS011;45572;48.804;8.330;2023-12-22T08:36:59;10.13;;;2.25;;
3549;SDS011;45572;48.804;8.330;2023-12-22T08:39:30;13.43;;;3.50;;
3549;SDS011;45572;48.804;8.330;2023-12-22T08:41:58;15.45;;;2.65;;
3549;SDS011;45572;48.804;8.330;2023-12-22T08:44:28;12.32;;;3.58;;
3549;SDS011;45572;48.804;8.330;2023-12-22T08:46:56;8.95;;;2.15;;
3549;SDS011;45572;48.804;8.330;2023-12-22T08:49:24;15.32;;;2.80;;
3549;SDS011;45572;48.804;8.330;2023-12-22T08:51:53;13.68;;;2.63;;
3549;SDS011;45572;48.804;8.330;2023-12-22T08:54:21;14.98;;;2.85;;
3549;SDS011;45572;48.804;8.330;2023-12-22T08:56:49;8.45;;;2.15;;
3549;SDS011;45572;48.804;8.330;2023-12-22T08:59:17;11.90;;;2.35;;
3549;SDS011;45572;48.804;8.330;2023-12-22T09:01:47;11.35;;;3.50;;
3549;SDS011;45572;48.804;8.330;2023-12-22T09:04:15;12.23;;;2.58;;
3549;SDS011;45572;48.804;8.330;2023-12-22T09:06:43;7.07;;;2.03;;
3549;SDS011;45572;48.804;8.330;2023-12-22T09:09:11;14.27;;;2.45;;
3549;SDS011;45572;48.804;8.330;2023-12-22T09:11:39;23.80;;;3.33;;
3549;SDS011;45572;48.804;8.330;2023-12-22T09:14:08;9.15;;;2.55;;
3549;SDS011;45572;48.804;8.330;2023-12-22T09:16:37;13.68;;;2.53;;
3549;SDS011;45572;48.804;8.330;2023-12-22T09:19:07;6.68;;;1.80;;
3549;SDS011;45572;48.804;8.330;2023-12-22T09:21:35;13.38;;;4.68;;
3549;SDS011;45572;48.804;8.330;2023-12-22T09:24:03;10.18;;;3.10;;
3549;SDS011;45572;48.804;8.330;2023-12-22T09:26:32;16.70;;;3.90;;
3549;SDS011;45572;48.804;8.330;2023-12-22T09:29:01;9.60;;;3.30;;
3549;SDS011;45572;48.804;8.330;2023-12-22T09:31:29;19.15;;;3.10;;
3549;SDS011;45572;48.804;8.330;2023-12-22T09:34:04;8.20;;;2.15;;
3549;SDS011;45572;48.804;8.330;2023-12-22T09:36:36;12.18;;;2.35;;
3549;SDS011;45572;48.804;8.330;2023-12-22T09:39:04;10.52;;;3.00;;
3549;SDS011;45572;48.804;8.330;2023-12-22T09:41:32;10.43;;;2.55;;
3549;SDS011;45572;48.804;8.330;2023-12-22T09:44:00;8.63;;;2.05;;
3549;SDS011;45572;48.804;8.330;2023-12-22T09:46:31;9.90;;;2.10;;
3549;SDS011;45572;48.804;8.330;2023-12-22T09:49:01;6.75;;;2.40;;
3549;SDS011;45572;48.804;8.330;2023-12-22T09:51:34;14.52;;;2.70;;
3549;SDS011;45572;48.804;8.330;2023-12-22T09:54:04;8.88;;;2.65;;
3549;SDS011;45572;48.804;8.330;2023-12-22T09:56:34;12.15;;;2.50;;
3549;SDS011;45572;48.804;8.330;2023-12-22T09:59:09;10.32;;;2.88;;
3549;SDS011;45572;48.804;8.330;2023-12-22T10:01:40;11.40;;;2.05;;
3549;SDS011;45572;48.804;8.330;2023-12-22T10:04:12;8.23;;;1.98;;
3549;SDS011;45572;48.804;8.330;2023-12-22T10:06:42;20.42;;;3.25;;
3549;SDS011;45572;48.804;8.330;2023-12-22T10:09:12;18.20;;;2.88;;
3549;SDS011;45572;48.804;8.330;2023-12-22T10:11:41;11.95;;;2.78;;
3549;SDS011;45572;48.804;8.330;2023-12-22T10:14:11;8.98;;;2.65;;
3549;SDS011;45572;48.804;8.330;2023-12-22T10:16:46;9.18;;;2.70;;
3549;SDS011;45572;48.804;8.330;2023-12-22T10:19:15;11.23;;;3.10;;
3549;SDS011;45572;48.804;8.330;2023-12-22T10:21:45;11.52;;;2.65;;
3549;SDS011;45572;48.804;8.330;2023-12-22T10:27:14;14.15;;;1.98;;
3549;SDS011;45572;48.804;8.330;2023-12-22T10:29:43;12.07;;;2.53;;
3549;SDS011;45572;48.804;8.330;2023-12-22T10:32:11;7.13;;;2.08;;
3549;SDS011;45572;48.804;8.330;2023-12-22T10:34:41;9.02;;;2.17;;
3549;SDS011;45572;48.804;8.330;2023-12-22T10:37:11;9.35;;;2.33;;
3549;SDS011;45572;48.804;8.330;2023-12-22T10:39:40;8.68;;;3.03;;
3549;SDS011;45572;48.804;8.330;2023-12-22T10:42:09;25.48;;;5.63;;
3549;SDS011;45572;48.804;8.330;2023-12-22T10:44:39;14.40;;;6.97;;
3549;SDS011;45572;48.804;8.330;2023-12-22T10:47:08;13.15;;;5.32;;
3549;SDS011;45572;48.804;8.330;2023-12-22T10:49:37;19.83;;;5.68;;
3549;SDS011;45572;48.804;8.330;2023-12-22T10:52:05;21.45;;;4.32;;
3549;SDS011;45572;48.804;8.330;2023-12-22T10:54:35;22.60;;;6.28;;
3549;SDS011;45572;48.804;8.330;2023-12-22T10:57:03;13.73;;;4.90;;
3549;SDS011;45572;48.804;8.330;2023-12-22T10:59:32;10.82;;;5.90;;
3549;SDS011;45572;48.804;8.330;2023-12-22T11:02:06;13.88;;;5.40;;
3549;SDS011;45572;48.804;8.330;2023-12-22T11:04:38;10.70;;;4.22;;
3549;SDS011;45572;48.804;8.330;2023-12-22T11:07:07;13.82;;;3.70;;
3549;SDS011;45572;48.804;8.330;2023-12-22T11:09:39;5.90;;;1.77;;
3549;SDS011;45572;48.804;8.330;2023-12-22T11:12:13;7.70;;;3.53;;
3549;SDS011;45572;48.804;8.330;2023-12-22T11:14:42;8.13;;;4.25;;
3549;SDS011;45572;48.804;8.330;2023-12-22T11:17:11;7.43;;;3.35;;
3549;SDS011;45572;48.804;8.330;2023-12-22T11:19:47;12.25;;;3.80;;
3549;SDS011;45572;48.804;8.330;2023-12-22T11:22:24;19.85;;;3.72;;
3549;SDS011;45572;48.804;8.330;2023-12-22T11:24:55;7.68;;;2.60;;
3549;SDS011;45572;48.804;8.330;2023-12-22T11:27:26;8.93;;;2.30;;
3549;SDS011;45572;48.804;8.330;2023-12-22T11:29:56;8.68;;;2.95;;
3549;SDS011;45572;48.804;8.330;2023-12-22T11:32:26;10.07;;;3.67;;
3549;SDS011;45572;48.804;8.330;2023-12-22T11:34:56;7.28;;;2.53;;
3549;SDS011;45572;48.804;8.330;2023-12-22T11:37:28;13.55;;;2.80;;
3549;SDS011;45572;48.804;8.330;2023-12-22T11:40:00;7.60;;;2.20;;
3549;SDS011;45572;48.804;8.330;2023-12-22T11:42:29;7.32;;;1.90;;
3549;SDS011;45572;48.804;8.330;2023-12-22T11:45:04;11.15;;;2.15;;
3549;SDS011;45572;48.804;8.330;2023-12-22T11:47:32;7.93;;;2.35;;
3549;SDS011;45572;48.804;8.330;2023-12-22T11:50:01;5.70;;;2.70;;
3549;SDS011;45572;48.804;8.330;2023-12-22T11:52:29;9.52;;;2.75;;
3549;SDS011;45572;48.804;8.330;2023-12-22T11:55:00;4.38;;;1.63;;
3549;SDS011;45572;48.804;8.330;2023-12-22T11:57:29;4.80;;;2.50;;
3549;SDS011;45572;48.804;8.330;2023-12-22T11:59:58;7.38;;;1.65;;
3549;SDS011;45572;48.804;8.330;2023-12-22T12:02:40;10.07;;;2.40;;
3549;SDS011;45572;48.804;8.330;2023-12-22T12:05:09;13.38;;;2.20;;
3549;SDS011;45572;48.804;8.330;2023-12-22T12:07:43;9.38;;;2.03;;
3549;SDS011;45572;48.804;8.330;2023-12-22T12:13:17;5.28;;;1.90;;
3549;SDS011;45572;48.804;8.330;2023-12-22T12:15:50;5.78;;;1.45;;
3549;SDS011;45572;48.804;8.330;2023-12-22T12:18:21;3.30;;;1.88;;
3549;SDS011;45572;48.804;8.330;2023-12-22T12:20:50;2.80;;;1.60;;
3549;SDS011;45572;48.804;8.330;2023-12-22T12:23:18;5.72;;;1.15;;
3549;SDS011;45572;48.804;8.330;2023-12-22T12:25:48;6.60;;;1.80;;
3549;SDS011;45572;48.804;8.330;2023-12-22T12:28:16;2.70;;;1.50;;
3549;SDS011;45572;48.804;8.330;2023-12-22T12:30:45;5.75;;;1.48;;
3549;SDS011;45572;48.804;8.330;2023-12-22T12:33:17;3.22;;;1.27;;
3549;SDS011;45572;48.804;8.330;2023-12-22T12:35:46;4.90;;;1.35;;
3549;SDS011;45572;48.804;8.330;2023-12-22T12:38:19;1.73;;;1.10;;
3549;SDS011;45572;48.804;8.330;2023-12-22T12:40:51;4.05;;;1.40;;
3549;SDS011;45572;48.804;8.330;2023-12-22T12:43:21;2.05;;;1.70;;
3549;SDS011;45572;48.804;8.330;2023-12-22T12:45:51;4.88;;;1.00;;
3549;SDS011;45572;48.804;8.330;2023-12-22T12:48:19;5.35;;;1.30;;
3549;SDS011;45572;48.804;8.330;2023-12-22T12:50:49;4.65;;;1.40;;
3549;SDS011;45572;48.804;8.330;2023-12-22T12:53:17;1.92;;;1.20;;
3549;SDS011;45572;48.804;8.330;2023-12-22T12:55:51;4.45;;;1.30;;
3549;SDS011;45572;48.804;8.330;2023-12-22T12:58:26;2.40;;;1.27;;
3549;SDS011;45572;48.804;8.330;2023-12-22T13:01:04;4.90;;;1.70;;
3549;SDS011;45572;48.804;8.330;2023-12-22T13:03:44;2.85;;;1.05;;
3549;SDS011;45572;48.804;8.330;2023-12-22T13:06:20;1.80;;;1.02;;
3549;SDS011;45572;48.804;8.330;2023-12-22T13:08:48;2.85;;;0.90;;
3549;SDS011;45572;48.804;8.330;2023-12-22T13:11:21;1.33;;;0.82;;
3549;SDS011;45572;48.804;8.330;2023-12-22T13:13:50;3.30;;;0.90;;
3549;SDS011;45572;48.804;8.330;2023-12-22T13:16:19;2.20;;;0.80;;
3549;SDS011;45572;48.804;8.330;2023-12-22T13:18:48;1.48;;;0.75;;
3549;SDS011;45572;48.804;8.330;2023-12-22T13:21:16;1.58;;;1.05;;
3549;SDS011;45572;48.804;8.330;2023-12-22T13:23:45;3.70;;;0.90;;
3549;SDS011;45572;48.804;8.330;2023-12-22T13:26:22;2.17;;;0.85;;
3549;SDS011;45572;48.804;8.330;2023-12-22T13:28:56;2.67;;;0.70;;
3549;SDS011;45572;48.804;8.330;2023-12-22T13:31:29;2.25;;;1.30;;
3549;SDS011;45572;48.804;8.330;2023-12-22T13:33:58;6.93;;;2.50;;
3549;SDS011;45572;48.804;8.330;2023-12-22T13:36:27;7.28;;;4.10;;
3549;SDS011;45572;48.804;8.330;2023-12-22T13:39:04;4.75;;;2.90;;
3549;SDS011;45572;48.804;8.330;2023-12-22T13:41:35;4.25;;;1.40;;
3549;SDS011;45572;48.804;8.330;2023-12-22T13:44:07;3.40;;;2.28;;
3549;SDS011;45572;48.804;8.330;2023-12-22T13:46:35;1.77;;;1.27;;
3549;SDS011;45572;48.804;8.330;2023-12-22T13:49:07;1.10;;;0.70;;
3549;SDS011;45572;48.804;8.330;2023-12-22T13:51:40;3.92;;;1.23;;
3549;SDS011;45572;48.804;8.330;2023-12-22T13:54:10;2.38;;;0.82;;
3549;SDS011;45572;48.804;8.330;2023-12-22T13:56:40;4.93;;;1.25;;
3549;SDS011;45572;48.804;8.330;2023-12-22T13:59:12;7.60;;;1.10;;
3549;SDS011;45572;48.804;8.330;2023-12-22T14:01:41;2.63;;;1.20;;
3549;SDS011;45572;48.804;8.330;2023-12-22T14:04:14;2.13;;;0.73;;
3549;SDS011;45572;48.804;8.330;2023-12-22T14:06:42;2.47;;;1.40;;
3549;SDS011;45572;48.804;8.330;2023-12-22T14:09:11;1.73;;;1.10;;
3549;SDS011;45572;48.804;8.330;2023-12-22T14:11:41;1.75;;;1.20;;
3549;SDS011;45572;48.804;8.330;2023-12-22T14:14:23;1.13;;;0.70;;
3549;SDS011;45572;48.804;8.330;2023-12-22T14:16:51;4.70;;;1.45;;
3549;SDS011;45572;48.804;8.330;2023-12-22T14:19:20;1.45;;;0.80;;
3549;SDS011;45572;48.804;8.330;2023-12-22T14:21:49;1.33;;;0.95;;
3549;SDS011;45572;48.804;8.330;2023-12-22T14:24:18;2.58;;;0.73;;
3549;SDS011;45572;48.804;8.330;2023-12-22T14:26:55;1.67;;;1.40;;
3549;SDS011;45572;48.804;8.330;2023-12-22T14:29:24;2.03;;;1.00;;
3549;SDS011;45572;48.804;8.330;2023-12-22T14:31:53;1.52;;;0.77;;
3549;SDS011;45572;48.804;8.330;2023-12-22T14:34:21;3.65;;;1.20;;
3549;SDS011;45572;48.804;8.330;2023-12-22T14:36:53;2.47;;;0.90;;
3549;SDS011;45572;48.804;8.330;2023-12-22T14:39:21;1.08;;;0.80;;
3549;SDS011;45572;48.804;8.330;2023-12-22T14:41:50;1.17;;;0.60;;
3549;SDS011;45572;48.804;8.330;2023-12-22T14:44:19;3.17;;;0.60;;
3549;SDS011;45572;48.804;8.330;2023-12-22T14:46:48;3.40;;;1.45;;
3549;SDS011;45572;48.804;8.330;2023-12-22T14:49:16;1.23;;;1.05;;
3549;SDS011;45572;48.804;8.330;2023-12-22T14:51:48;2.80;;;0.95;;
3549;SDS011;45572;48.804;8.330;2023-12-22T14:54:31;4.82;;;0.60;;
3549;SDS011;45572;48.804;8.330;2023-12-22T14:56:59;1.23;;;0.60;;
3549;SDS011;45572;48.804;8.330;2023-12-22T14:59:29;0.95;;;0.50;;
3549;SDS011;45572;48.804;8.330;2023-12-22T15:01:57;1.10;;;0.60;;
3549;SDS011;45572;48.804;8.330;2023-12-22T15:04:26;1.30;;;1.15;;
3549;SDS011;45572;48.804;8.330;2023-12-22T15:06:54;1.88;;;1.13;;
3549;SDS011;45572;48.804;8.330;2023-12-22T15:09:27;3.65;;;0.85;;
3549;SDS011;45572;48.804;8.330;2023-12-22T15:11:56;2.15;;;1.13;;
3549;SDS011;45572;48.804;8.330;2023-12-22T15:14:24;0.80;;;0.70;;
3549;SDS011;45572;48.804;8.330;2023-12-22T15:16:54;1.05;;;0.68;;
3549;SDS011;45572;48.804;8.330;2023-12-22T15:19:22;0.90;;;0.68;;
3549;SDS011;45572;48.804;8.330;2023-12-22T15:21:51;0.70;;;0.50;;
3549;SDS011;45572;48.804;8.330;2023-12-22T15:24:20;0.60;;;0.40;;